sensor_id;sensor_type;location;lat;lon;timestamp;temperature;humidity
5457;DHT22;2751;49.802;9.944;2023-01-28T00:00:51;2.80;99.90
5457;DHT22;2751;49.802;9.944;2023-01-28T00:03:18;2.80;99.90
5457;DHT22;2751;49.802;9.944;2023-01-28T00:05:45;3.10;99.90
5457;DHT22;2751;49.802;9.944;2023-01-28T00:08:11;2.80;99.90
5457;DHT22;2751;49.802;9.944;2023-01-28T00:10:39;2.80;99.90
5457;DHT22;2751;49.802;9.944;2023-01-28T00:13:08;2.80;99.90
5457;DHT22;2751;49.802;9.944;2023-01-28T00:15:38;2.80;99.90
5457;DHT22;2751;49.802;9.944;2023-01-28T00:18:04;2.80;99.90
5457;DHT22;2751;49.802;9.944;2023-01-28T00:20:31;2.80;99.90
5457;DHT22;2751;49.802;9.944;2023-01-28T00:22:59;2.90;99.90
5457;DHT22;2751;49.802;9.944;2023-01-28T00:25:26;2.90;99.90
5457;DHT22;2751;49.802;9.944;2023-01-28T00:27:53;2.90;99.90
5457;DHT22;2751;49.802;9.944;2023-01-28T00:30:20;3.00;99.90
5457;DHT22;2751;49.802;9.944;2023-01-28T00:32:48;3.00;99.90
5457;DHT22;2751;49.802;9.944;2023-01-28T00:35:15;3.00;99.90
5457;DHT22;2751;49.802;9.944;2023-01-28T00:37:44;3.00;99.90
5457;DHT22;2751;49.802;9.944;2023-01-28T00:40:12;3.00;99.90
5457;DHT22;2751;49.802;9.944;2023-01-28T00:42:39;3.10;99.90
5457;DHT22;2751;49.802;9.944;2023-01-28T00:45:06;3.00;99.90
5457;DHT22;2751;49.802;9.944;2023-01-28T00:47:33;3.00;99.90
5457;DHT22;2751;49.802;9.944;2023-01-28T00:50:02;3.00;99.90
5457;DHT22;2751;49.802;9.944;2023-01-28T00:52:29;3.50;99.90
5457;DHT22;2751;49.802;9.944;2023-01-28T00:54:56;3.10;99.90
5457;DHT22;2751;49.802;9.944;2023-01-28T00:57:23;3.00;99.90
5457;DHT22;2751;49.802;9.944;2023-01-28T00:59:50;3.00;99.90
5457;DHT22;2751;49.802;9.944;2023-01-28T01:02:16;3.00;99.90
5457;DHT22;2751;49.802;9.944;2023-01-28T01:04:43;3.00;99.90
5457;DHT22;2751;49.802;9.944;2023-01-28T01:07:21;3.00;99.90
5457;DHT22;2751;49.802;9.944;2023-01-28T01:09:57;3.00;99.90
5457;DHT22;2751;49.802;9.944;2023-01-28T01:12:24;3.00;99.90
5457;DHT22;2751;49.802;9.944;2023-01-28T01:14:51;3.00;99.90
5457;DHT22;2751;49.802;9.944;2023-01-28T01:17:18;3.00;99.90
5457;DHT22;2751;49.802;9.944;2023-01-28T01:19:45;3.00;99.90
5457;DHT22;2751;49.802;9.944;2023-01-28T01:22:12;3.00;99.90
5457;DHT22;2751;49.802;9.944;2023-01-28T01:24:40;3.00;99.90
5457;DHT22;2751;49.802;9.944;2023-01-28T01:27:07;3.00;99.90
5457;DHT22;2751;49.802;9.944;2023-01-28T01:29:34;3.00;99.90
5457;DHT22;2751;49.802;9.944;2023-01-28T01:32:01;2.90;99.90
5457;DHT22;2751;49.802;9.944;2023-01-28T01:34:27;2.90;99.90
5457;DHT22;2751;49.802;9.944;2023-01-28T01:36:54;2.90;99.90
5457;DHT22;2751;49.802;9.944;2023-01-28T01:39:21;2.90;99.90
5457;DHT22;2751;49.802;9.944;2023-01-28T01:41:49;2.90;99.90
5457;DHT22;2751;49.802;9.944;2023-01-28T01:47:40;2.90;99.90
5457;DHT22;2751;49.802;9.944;2023-01-28T01:50:14;2.90;99.90
5457;DHT22;2751;49.802;9.944;2023-01-28T01:52:41;2.90;99.90
5457;DHT22;2751;49.802;9.944;2023-01-28T01:55:11;2.90;99.90
5457;DHT22;2751;49.802;9.944;2023-01-28T01:57:41;3.00;99.90
5457;DHT22;2751;49.802;9.944;2023-01-28T02:00:10;2.90;99.90
5457;DHT22;2751;49.802;9.944;2023-01-28T02:02:40;2.90;99.90
5457;DHT22;2751;49.802;9.944;2023-01-28T02:05:08;3.30;99.90
5457;DHT22;2751;49.802;9.944;2023-01-28T02:07:36;2.90;99.90
5457;DHT22;2751;49.802;9.944;2023-01-28T02:10:05;2.90;99.90
5457;DHT22;2751;49.802;9.944;2023-01-28T02:12:34;2.90;99.90
5457;DHT22;2751;49.802;9.944;2023-01-28T02:15:06;2.90;99.90
5457;DHT22;2751;49.802;9.944;2023-01-28T02:17:34;2.90;99.90
5457;DHT22;2751;49.802;9.944;2023-01-28T02:20:04;2.80;99.90
5457;DHT22;2751;49.802;9.944;2023-01-28T02:25:52;2.80;99.90
5457;DHT22;2751;49.802;9.944;2023-01-28T02:28:28;2.80;99.90
5457;DHT22;2751;49.802;9.944;2023-01-28T02:31:03;2.80;99.90
5457;DHT22;2751;49.802;9.944;2023-01-28T02:33:37;2.80;99.90
5457;DHT22;2751;49.802;9.944;2023-01-28T02:36:12;2.80;99.90
5457;DHT22;2751;49.802;9.944;2023-01-28T02:38:43;2.80;99.90
5457;DHT22;2751;49.802;9.944;2023-01-28T02:41:14;2.80;99.90
5457;DHT22;2751;49.802;9.944;2023-01-28T02:43:45;2.80;99.90
5457;DHT22;2751;49.802;9.944;2023-01-28T02:46:20;2.80;99.90
5457;DHT22;2751;49.802;9.944;2023-01-28T02:49:08;3.20;99.90
5457;DHT22;2751;49.802;9.944;2023-01-28T02:51:56;2.70;99.90
5457;DHT22;2751;49.802;9.944;2023-01-28T02:54:33;2.70;99.90
5457;DHT22;2751;49.802;9.944;2023-01-28T02:57:10;3.00;99.90
5457;DHT22;2751;49.802;9.944;2023-01-28T02:59:48;2.70;99.90
5457;DHT22;2751;49.802;9.944;2023-01-28T03:02:24;2.90;99.90
5457;DHT22;2751;49.802;9.944;2023-01-28T03:04:59;2.70;99.90
5457;DHT22;2751;49.802;9.944;2023-01-28T03:07:30;2.70;99.90
5457;DHT22;2751;49.802;9.944;2023-01-28T03:10:01;2.70;99.90
5457;DHT22;2751;49.802;9.944;2023-01-28T03:12:31;2.70;99.90
5457;DHT22;2751;49.802;9.944;2023-01-28T03:15:18;2.70;99.90
5457;DHT22;2751;49.802;9.944;2023-01-28T03:18:07;2.70;99.90
5457;DHT22;2751;49.802;9.944;2023-01-28T03:20:56;2.70;99.90
5457;DHT22;2751;49.802;9.944;2023-01-28T03:23:47;2.70;99.90
5457;DHT22;2751;49.802;9.944;2023-01-28T03:26:39;2.60;99.90
5457;DHT22;2751;49.802;9.944;2023-01-28T03:29:25;2.60;99.90
5457;DHT22;2751;49.802;9.944;2023-01-28T03:32:12;2.70;99.90
5457;DHT22;2751;49.802;9.944;2023-01-28T03:34:57;3.20;99.90
5457;DHT22;2751;49.802;9.944;2023-01-28T03:37:42;2.70;99.90
5457;DHT22;2751;49.802;9.944;2023-01-28T03:40:10;2.70;99.90
5457;DHT22;2751;49.802;9.944;2023-01-28T03:42:37;2.70;99.90
5457;DHT22;2751;49.802;9.944;2023-01-28T03:45:05;2.70;99.90
5457;DHT22;2751;49.802;9.944;2023-01-28T03:47:33;2.70;99.90
5457;DHT22;2751;49.802;9.944;2023-01-28T03:50:00;2.60;99.90
5457;DHT22;2751;49.802;9.944;2023-01-28T03:52:30;3.00;99.90
5457;DHT22;2751;49.802;9.944;2023-01-28T03:54:57;2.60;99.90
5457;DHT22;2751;49.802;9.944;2023-01-28T03:57:26;2.60;99.90
5457;DHT22;2751;49.802;9.944;2023-01-28T03:59:55;2.60;99.90
5457;DHT22;2751;49.802;9.944;2023-01-28T04:02:22;2.70;99.90
5457;DHT22;2751;49.802;9.944;2023-01-28T04:04:52;2.60;99.90
5457;DHT22;2751;49.802;9.944;2023-01-28T04:07:19;2.70;99.90
5457;DHT22;2751;49.802;9.944;2023-01-28T04:09:46;2.70;99.90
5457;DHT22;2751;49.802;9.944;2023-01-28T04:12:13;3.00;99.90
5457;DHT22;2751;49.802;9.944;2023-01-28T04:14:40;2.70;99.90
5457;DHT22;2751;49.802;9.944;2023-01-28T04:17:07;2.70;99.90
5457;DHT22;2751;49.802;9.944;2023-01-28T04:19:35;2.60;99.90
5457;DHT22;2751;49.802;9.944;2023-01-28T04:22:05;2.60;99.90
5457;DHT22;2751;49.802;9.944;2023-01-28T04:24:33;2.90;99.90
5457;DHT22;2751;49.802;9.944;2023-01-28T04:27:00;2.60;99.90
5457;DHT22;2751;49.802;9.944;2023-01-28T04:29:26;3.00;99.90
5457;DHT22;2751;49.802;9.944;2023-01-28T04:31:53;2.70;99.90
5457;DHT22;2751;49.802;9.944;2023-01-28T04:34:20;2.70;99.90
5457;DHT22;2751;49.802;9.944;2023-01-28T04:36:47;2.70;99.90
5457;DHT22;2751;49.802;9.944;2023-01-28T04:39:15;2.60;99.90
5457;DHT22;2751;49.802;9.944;2023-01-28T04:41:42;2.60;99.90
5457;DHT22;2751;49.802;9.944;2023-01-28T04:44:09;2.60;99.90
5457;DHT22;2751;49.802;9.944;2023-01-28T04:46:36;2.60;99.90
5457;DHT22;2751;49.802;9.944;2023-01-28T04:49:03;2.60;99.90
5457;DHT22;2751;49.802;9.944;2023-01-28T04:51:30;2.70;99.90
5457;DHT22;2751;49.802;9.944;2023-01-28T04:53:56;2.60;99.90
5457;DHT22;2751;49.802;9.944;2023-01-28T04:56:24;2.70;99.90
5457;DHT22;2751;49.802;9.944;2023-01-28T04:58:51;2.70;99.90
5457;DHT22;2751;49.802;9.944;2023-01-28T05:01:18;2.70;99.90
5457;DHT22;2751;49.802;9.944;2023-01-28T05:03:45;2.70;99.90
5457;DHT22;2751;49.802;9.944;2023-01-28T05:06:12;3.10;99.90
5457;DHT22;2751;49.802;9.944;2023-01-28T05:08:38;2.70;99.90
5457;DHT22;2751;49.802;9.944;2023-01-28T05:11:05;2.70;99.90
5457;DHT22;2751;49.802;9.944;2023-01-28T05:13:33;2.70;99.90
5457;DHT22;2751;49.802;9.944;2023-01-28T05:16:00;2.70;99.90
5457;DHT22;2751;49.802;9.944;2023-01-28T05:18:27;2.60;99.90
5457;DHT22;2751;49.802;9.944;2023-01-28T05:20:54;2.70;99.90
5457;DHT22;2751;49.802;9.944;2023-01-28T05:23:21;2.70;99.90
5457;DHT22;2751;49.802;9.944;2023-01-28T05:25:48;2.60;99.90
5457;DHT22;2751;49.802;9.944;2023-01-28T05:28:15;2.70;99.90
5457;DHT22;2751;49.802;9.944;2023-01-28T05:30:43;2.70;99.90
5457;DHT22;2751;49.802;9.944;2023-01-28T05:33:10;2.70;99.90
5457;DHT22;2751;49.802;9.944;2023-01-28T05:35:36;3.00;99.90
5457;DHT22;2751;49.802;9.944;2023-01-28T05:38:04;2.70;99.90
5457;DHT22;2751;49.802;9.944;2023-01-28T05:40:30;2.70;99.90
5457;DHT22;2751;49.802;9.944;2023-01-28T05:42:57;2.70;99.90
5457;DHT22;2751;49.802;9.944;2023-01-28T05:45:24;2.70;99.90
5457;DHT22;2751;49.802;9.944;2023-01-28T05:47:52;2.60;99.90
5457;DHT22;2751;49.802;9.944;2023-01-28T05:50:19;2.60;99.90
5457;DHT22;2751;49.802;9.944;2023-01-28T05:52:46;2.60;99.90
5457;DHT22;2751;49.802;9.944;2023-01-28T05:55:13;2.60;99.90
5457;DHT22;2751;49.802;9.944;2023-01-28T05:57:39;2.60;99.90
5457;DHT22;2751;49.802;9.944;2023-01-28T06:00:08;2.60;99.90
5457;DHT22;2751;49.802;9.944;2023-01-28T06:02:35;2.50;99.90
5457;DHT22;2751;49.802;9.944;2023-01-28T06:05:04;2.50;99.90
5457;DHT22;2751;49.802;9.944;2023-01-28T06:07:31;2.50;99.90
5457;DHT22;2751;49.802;9.944;2023-01-28T06:09:57;2.60;99.90
5457;DHT22;2751;49.802;9.944;2023-01-28T06:12:24;2.60;99.90
5457;DHT22;2751;49.802;9.944;2023-01-28T06:14:51;2.60;99.90
5457;DHT22;2751;49.802;9.944;2023-01-28T06:17:18;2.60;99.90
5457;DHT22;2751;49.802;9.944;2023-01-28T06:19:45;2.60;99.90
5457;DHT22;2751;49.802;9.944;2023-01-28T06:22:13;2.50;99.90
5457;DHT22;2751;49.802;9.944;2023-01-28T06:24:40;2.50;99.90
5457;DHT22;2751;49.802;9.944;2023-01-28T06:27:07;2.50;99.90
5457;DHT22;2751;49.802;9.944;2023-01-28T06:29:33;2.50;99.90
5457;DHT22;2751;49.802;9.944;2023-01-28T06:32:00;2.40;99.90
5457;DHT22;2751;49.802;9.944;2023-01-28T06:34:27;2.50;99.90
5457;DHT22;2751;49.802;9.944;2023-01-28T06:36:54;2.50;99.90
5457;DHT22;2751;49.802;9.944;2023-01-28T06:39:22;2.50;99.90
5457;DHT22;2751;49.802;9.944;2023-01-28T06:41:51;2.40;99.90
5457;DHT22;2751;49.802;9.944;2023-01-28T06:44:18;2.40;99.90
5457;DHT22;2751;49.802;9.944;2023-01-28T06:46:45;2.50;99.90
5457;DHT22;2751;49.802;9.944;2023-01-28T06:49:11;2.50;99.90
5457;DHT22;2751;49.802;9.944;2023-01-28T06:51:38;2.50;99.90
5457;DHT22;2751;49.802;9.944;2023-01-28T06:54:05;2.50;99.90
5457;DHT22;2751;49.802;9.944;2023-01-28T06:56:33;2.50;99.90
5457;DHT22;2751;49.802;9.944;2023-01-28T06:59:00;2.50;99.90
5457;DHT22;2751;49.802;9.944;2023-01-28T07:01:27;2.50;99.90
5457;DHT22;2751;49.802;9.944;2023-01-28T07:03:55;2.60;99.90
5457;DHT22;2751;49.802;9.944;2023-01-28T07:06:21;2.60;99.90
5457;DHT22;2751;49.802;9.944;2023-01-28T07:08:48;2.60;99.90
5457;DHT22;2751;49.802;9.944;2023-01-28T07:11:15;2.60;99.90
5457;DHT22;2751;49.802;9.944;2023-01-28T07:13:43;2.60;99.90
5457;DHT22;2751;49.802;9.944;2023-01-28T07:16:11;2.60;99.90
5457;DHT22;2751;49.802;9.944;2023-01-28T07:18:38;2.50;99.90
5457;DHT22;2751;49.802;9.944;2023-01-28T07:21:05;2.50;99.90
5457;DHT22;2751;49.802;9.944;2023-01-28T07:23:32;2.50;99.90
5457;DHT22;2751;49.802;9.944;2023-01-28T07:26:02;2.50;99.90
5457;DHT22;2751;49.802;9.944;2023-01-28T07:28:29;2.40;99.90
5457;DHT22;2751;49.802;9.944;2023-01-28T07:30:58;2.40;99.90
5457;DHT22;2751;49.802;9.944;2023-01-28T07:33:25;2.50;99.90
5457;DHT22;2751;49.802;9.944;2023-01-28T07:35:51;2.50;99.90
5457;DHT22;2751;49.802;9.944;2023-01-28T07:38:18;2.50;99.90
5457;DHT22;2751;49.802;9.944;2023-01-28T07:40:45;2.50;99.90
5457;DHT22;2751;49.802;9.944;2023-01-28T07:43:13;2.50;99.90
5457;DHT22;2751;49.802;9.944;2023-01-28T07:45:40;2.50;99.90
5457;DHT22;2751;49.802;9.944;2023-01-28T07:48:11;2.50;99.90
5457;DHT22;2751;49.802;9.944;2023-01-28T07:50:38;2.50;99.90
5457;DHT22;2751;49.802;9.944;2023-01-28T07:53:07;2.50;99.90
5457;DHT22;2751;49.802;9.944;2023-01-28T07:55:34;2.60;99.90
5457;DHT22;2751;49.802;9.944;2023-01-28T07:58:02;2.60;99.90
5457;DHT22;2751;49.802;9.944;2023-01-28T08:00:31;2.60;99.90
5457;DHT22;2751;49.802;9.944;2023-01-28T08:03:00;2.60;99.90
5457;DHT22;2751;49.802;9.944;2023-01-28T08:05:37;2.60;99.90
5457;DHT22;2751;49.802;9.944;2023-01-28T08:08:06;2.60;99.90
5457;DHT22;2751;49.802;9.944;2023-01-28T08:10:33;2.60;99.90
5457;DHT22;2751;49.802;9.944;2023-01-28T08:13:00;2.50;99.90
5457;DHT22;2751;49.802;9.944;2023-01-28T08:15:28;2.50;99.90
5457;DHT22;2751;49.802;9.944;2023-01-28T08:17:55;2.60;99.90
5457;DHT22;2751;49.802;9.944;2023-01-28T08:20:24;2.60;99.90
5457;DHT22;2751;49.802;9.944;2023-01-28T08:23:02;2.80;99.90
5457;DHT22;2751;49.802;9.944;2023-01-28T08:25:29;2.60;99.90
5457;DHT22;2751;49.802;9.944;2023-01-28T08:27:56;2.50;99.90
5457;DHT22;2751;49.802;9.944;2023-01-28T08:30:23;2.50;99.90
5457;DHT22;2751;49.802;9.944;2023-01-28T08:32:50;2.50;99.90
5457;DHT22;2751;49.802;9.944;2023-01-28T08:35:17;2.50;99.90
5457;DHT22;2751;49.802;9.944;2023-01-28T08:37:44;2.50;99.90
5457;DHT22;2751;49.802;9.944;2023-01-28T08:40:12;2.60;99.90
5457;DHT22;2751;49.802;9.944;2023-01-28T08:42:39;2.70;99.90
5457;DHT22;2751;49.802;9.944;2023-01-28T08:45:11;2.60;99.90
5457;DHT22;2751;49.802;9.944;2023-01-28T08:47:46;2.60;99.90
5457;DHT22;2751;49.802;9.944;2023-01-28T08:50:14;2.50;99.90
5457;DHT22;2751;49.802;9.944;2023-01-28T08:52:41;2.10;99.90
5457;DHT22;2751;49.802;9.944;2023-01-28T08:55:09;2.60;99.90
5457;DHT22;2751;49.802;9.944;2023-01-28T08:57:37;2.50;99.90
5457;DHT22;2751;49.802;9.944;2023-01-28T09:00:05;2.60;99.90
5457;DHT22;2751;49.802;9.944;2023-01-28T09:02:35;2.60;99.90
5457;DHT22;2751;49.802;9.944;2023-01-28T09:05:02;2.60;99.90
5457;DHT22;2751;49.802;9.944;2023-01-28T09:07:29;2.60;99.90
5457;DHT22;2751;49.802;9.944;2023-01-28T09:09:55;2.70;99.90
5457;DHT22;2751;49.802;9.944;2023-01-28T09:12:22;2.80;99.90
5457;DHT22;2751;49.802;9.944;2023-01-28T09:14:51;2.70;99.90
5457;DHT22;2751;49.802;9.944;2023-01-28T09:17:18;2.80;99.90
5457;DHT22;2751;49.802;9.944;2023-01-28T09:19:45;3.10;99.90
5457;DHT22;2751;49.802;9.944;2023-01-28T09:22:12;2.80;99.90
5457;DHT22;2751;49.802;9.944;2023-01-28T09:24:39;2.90;99.90
5457;DHT22;2751;49.802;9.944;2023-01-28T09:27:06;2.90;99.90
5457;DHT22;2751;49.802;9.944;2023-01-28T09:29:33;3.00;99.90
5457;DHT22;2751;49.802;9.944;2023-01-28T09:32:01;3.00;99.90
5457;DHT22;2751;49.802;9.944;2023-01-28T09:34:28;3.00;99.90
5457;DHT22;2751;49.802;9.944;2023-01-28T09:36:55;3.10;99.90
5457;DHT22;2751;49.802;9.944;2023-01-28T09:39:22;3.10;99.90
5457;DHT22;2751;49.802;9.944;2023-01-28T09:41:56;3.10;99.90
5457;DHT22;2751;49.802;9.944;2023-01-28T09:44:37;3.10;99.90
5457;DHT22;2751;49.802;9.944;2023-01-28T09:47:14;3.10;99.90
5457;DHT22;2751;49.802;9.944;2023-01-28T09:49:44;3.10;99.90
5457;DHT22;2751;49.802;9.944;2023-01-28T09:52:16;3.10;99.90
5457;DHT22;2751;49.802;9.944;2023-01-28T09:54:45;3.20;99.90
5457;DHT22;2751;49.802;9.944;2023-01-28T09:57:19;3.30;99.90
5457;DHT22;2751;49.802;9.944;2023-01-28T09:59:47;3.40;99.90
5457;DHT22;2751;49.802;9.944;2023-01-28T10:02:34;3.40;99.90
5457;DHT22;2751;49.802;9.944;2023-01-28T10:05:15;3.40;99.90
5457;DHT22;2751;49.802;9.944;2023-01-28T10:07:48;3.40;99.90
5457;DHT22;2751;49.802;9.944;2023-01-28T10:10:25;3.40;99.90
5457;DHT22;2751;49.802;9.944;2023-01-28T10:13:03;3.40;99.90
5457;DHT22;2751;49.802;9.944;2023-01-28T10:15:56;3.30;99.90
5457;DHT22;2751;49.802;9.944;2023-01-28T10:18:32;3.20;99.90
5457;DHT22;2751;49.802;9.944;2023-01-28T10:21:07;3.40;99.90
5457;DHT22;2751;49.802;9.944;2023-01-28T10:23:44;3.50;99.90
5457;DHT22;2751;49.802;9.944;2023-01-28T10:26:20;3.40;99.90
5457;DHT22;2751;49.802;9.944;2023-01-28T10:28:53;3.50;99.90
5457;DHT22;2751;49.802;9.944;2023-01-28T10:31:21;3.70;99.90
5457;DHT22;2751;49.802;9.944;2023-01-28T10:33:49;3.50;99.90
5457;DHT22;2751;49.802;9.944;2023-01-28T10:36:17;3.50;99.90
5457;DHT22;2751;49.802;9.944;2023-01-28T10:38:44;3.60;99.90
5457;DHT22;2751;49.802;9.944;2023-01-28T10:41:16;3.50;99.90
5457;DHT22;2751;49.802;9.944;2023-01-28T10:43:45;3.50;99.90
5457;DHT22;2751;49.802;9.944;2023-01-28T10:46:16;3.50;99.90
5457;DHT22;2751;49.802;9.944;2023-01-28T10:48:46;3.60;99.90
5457;DHT22;2751;49.802;9.944;2023-01-28T10:51:15;3.80;99.90
5457;DHT22;2751;49.802;9.944;2023-01-28T10:53:45;3.60;99.90
5457;DHT22;2751;49.802;9.944;2023-01-28T10:56:14;3.60;99.90
5457;DHT22;2751;49.802;9.944;2023-01-28T10:58:56;3.50;99.90
5457;DHT22;2751;49.802;9.944;2023-01-28T11:01:24;3.50;99.90
5457;DHT22;2751;49.802;9.944;2023-01-28T11:03:53;3.40;99.90
5457;DHT22;2751;49.802;9.944;2023-01-28T11:06:26;3.90;99.90
5457;DHT22;2751;49.802;9.944;2023-01-28T11:08:54;3.50;99.90
5457;DHT22;2751;49.802;9.944;2023-01-28T11:11:24;3.50;99.90
5457;DHT22;2751;49.802;9.944;2023-01-28T11:13:53;3.40;99.90
5457;DHT22;2751;49.802;9.944;2023-01-28T11:16:23;3.40;99.90
5457;DHT22;2751;49.802;9.944;2023-01-28T11:18:52;3.40;99.90
5457;DHT22;2751;49.802;9.944;2023-01-28T11:21:22;3.50;99.90
5457;DHT22;2751;49.802;9.944;2023-01-28T11:23:53;3.50;99.90
5457;DHT22;2751;49.802;9.944;2023-01-28T11:26:23;3.50;99.90
5457;DHT22;2751;49.802;9.944;2023-01-28T11:28:51;3.40;99.90
5457;DHT22;2751;49.802;9.944;2023-01-28T11:31:20;3.40;99.90
5457;DHT22;2751;49.802;9.944;2023-01-28T11:33:49;3.40;99.90
5457;DHT22;2751;49.802;9.944;2023-01-28T11:36:19;3.30;99.90
5457;DHT22;2751;49.802;9.944;2023-01-28T11:38:50;3.30;99.90
5457;DHT22;2751;49.802;9.944;2023-01-28T11:41:22;3.30;99.90
5457;DHT22;2751;49.802;9.944;2023-01-28T11:43:50;3.20;99.90
5457;DHT22;2751;49.802;9.944;2023-01-28T11:46:37;3.10;99.90
5457;DHT22;2751;49.802;9.944;2023-01-28T11:49:13;3.10;99.90
5457;DHT22;2751;49.802;9.944;2023-01-28T11:51:49;3.10;99.90
5457;DHT22;2751;49.802;9.944;2023-01-28T11:54:30;3.20;99.90
5457;DHT22;2751;49.802;9.944;2023-01-28T11:57:18;3.20;99.90
5457;DHT22;2751;49.802;9.944;2023-01-28T11:59:58;3.30;99.90
5457;DHT22;2751;49.802;9.944;2023-01-28T12:02:42;3.30;99.90
5457;DHT22;2751;49.802;9.944;2023-01-28T12:05:23;3.30;99.90
5457;DHT22;2751;49.802;9.944;2023-01-28T12:07:58;3.20;99.90
5457;DHT22;2751;49.802;9.944;2023-01-28T12:10:35;3.30;99.90
5457;DHT22;2751;49.802;9.944;2023-01-28T12:13:19;3.20;99.90
5457;DHT22;2751;49.802;9.944;2023-01-28T12:16:11;3.30;99.90
5457;DHT22;2751;49.802;9.944;2023-01-28T12:18:56;3.20;99.90
5457;DHT22;2751;49.802;9.944;2023-01-28T12:21:35;3.30;99.90
5457;DHT22;2751;49.802;9.944;2023-01-28T12:24:14;3.20;99.90
5457;DHT22;2751;49.802;9.944;2023-01-28T12:26:50;3.40;99.90
5457;DHT22;2751;49.802;9.944;2023-01-28T12:29:26;3.10;99.90
5457;DHT22;2751;49.802;9.944;2023-01-28T12:32:09;3.10;99.90
5457;DHT22;2751;49.802;9.944;2023-01-28T12:34:57;3.00;99.90
5457;DHT22;2751;49.802;9.944;2023-01-28T12:37:38;3.00;99.90
5457;DHT22;2751;49.802;9.944;2023-01-28T12:40:19;3.30;99.90
5457;DHT22;2751;49.802;9.944;2023-01-28T12:42:57;2.90;99.90
5457;DHT22;2751;49.802;9.944;2023-01-28T12:45:30;2.90;99.90
5457;DHT22;2751;49.802;9.944;2023-01-28T12:48:02;2.90;99.90
5457;DHT22;2751;49.802;9.944;2023-01-28T12:50:35;2.90;99.90
5457;DHT22;2751;49.802;9.944;2023-01-28T12:53:16;2.90;99.90
5457;DHT22;2751;49.802;9.944;2023-01-28T12:55:48;3.20;99.90
5457;DHT22;2751;49.802;9.944;2023-01-28T12:58:21;3.30;99.90
5457;DHT22;2751;49.802;9.944;2023-01-28T13:00:51;3.10;99.90
5457;DHT22;2751;49.802;9.944;2023-01-28T13:03:25;3.00;99.90
5457;DHT22;2751;49.802;9.944;2023-01-28T13:05:58;3.00;99.90
5457;DHT22;2751;49.802;9.944;2023-01-28T13:08:27;3.00;99.90
5457;DHT22;2751;49.802;9.944;2023-01-28T13:10:56;2.90;99.90
5457;DHT22;2751;49.802;9.944;2023-01-28T13:13:29;3.20;99.90
5457;DHT22;2751;49.802;9.944;2023-01-28T13:15:59;3.30;99.90
5457;DHT22;2751;49.802;9.944;2023-01-28T13:18:32;3.10;99.90
5457;DHT22;2751;49.802;9.944;2023-01-28T13:21:01;3.10;99.90
5457;DHT22;2751;49.802;9.944;2023-01-28T13:23:37;3.00;99.90
5457;DHT22;2751;49.802;9.944;2023-01-28T13:26:29;3.00;99.90
5457;DHT22;2751;49.802;9.944;2023-01-28T13:29:16;3.00;99.90
5457;DHT22;2751;49.802;9.944;2023-01-28T13:31:44;2.80;99.90
5457;DHT22;2751;49.802;9.944;2023-01-28T13:34:30;3.00;99.90
5457;DHT22;2751;49.802;9.944;2023-01-28T13:37:01;2.80;99.90
5457;DHT22;2751;49.802;9.944;2023-01-28T13:39:30;2.70;99.90
5457;DHT22;2751;49.802;9.944;2023-01-28T13:42:24;2.80;99.90
5457;DHT22;2751;49.802;9.944;2023-01-28T13:44:53;2.70;99.90
5457;DHT22;2751;49.802;9.944;2023-01-28T13:47:26;2.80;99.90
5457;DHT22;2751;49.802;9.944;2023-01-28T13:49:57;2.80;99.90
5457;DHT22;2751;49.802;9.944;2023-01-28T13:52:27;2.70;99.90
5457;DHT22;2751;49.802;9.944;2023-01-28T13:55:00;2.70;99.90
5457;DHT22;2751;49.802;9.944;2023-01-28T14:00:54;2.70;99.90
5457;DHT22;2751;49.802;9.944;2023-01-28T14:03:47;2.60;99.90
5457;DHT22;2751;49.802;9.944;2023-01-28T14:06:52;2.60;99.90
5457;DHT22;2751;49.802;9.944;2023-01-28T14:09:38;2.60;99.90
5457;DHT22;2751;49.802;9.944;2023-01-28T14:18:23;2.60;99.90
5457;DHT22;2751;49.802;9.944;2023-01-28T14:20:52;2.60;99.90
5457;DHT22;2751;49.802;9.944;2023-01-28T14:23:21;2.50;99.90
5457;DHT22;2751;49.802;9.944;2023-01-28T14:25:57;2.50;99.90
5457;DHT22;2751;49.802;9.944;2023-01-28T14:28:36;2.50;99.90
5457;DHT22;2751;49.802;9.944;2023-01-28T14:31:07;2.50;99.90
5457;DHT22;2751;49.802;9.944;2023-01-28T14:33:39;2.40;99.90
5457;DHT22;2751;49.802;9.944;2023-01-28T14:36:09;2.40;99.90
5457;DHT22;2751;49.802;9.944;2023-01-28T14:38:39;2.40;99.90
5457;DHT22;2751;49.802;9.944;2023-01-28T14:41:07;2.30;99.90
5457;DHT22;2751;49.802;9.944;2023-01-28T14:43:35;2.30;99.90
5457;DHT22;2751;49.802;9.944;2023-01-28T14:46:20;2.40;99.90
5457;DHT22;2751;49.802;9.944;2023-01-28T14:49:08;2.30;99.90
5457;DHT22;2751;49.802;9.944;2023-01-28T14:54:51;2.20;99.90
5457;DHT22;2751;49.802;9.944;2023-01-28T14:57:40;2.20;99.90
5457;DHT22;2751;49.802;9.944;2023-01-28T15:00:18;2.10;99.90
5457;DHT22;2751;49.802;9.944;2023-01-28T15:02:45;2.20;99.90
5457;DHT22;2751;49.802;9.944;2023-01-28T15:05:17;2.10;99.90
5457;DHT22;2751;49.802;9.944;2023-01-28T15:07:45;2.10;99.90
5457;DHT22;2751;49.802;9.944;2023-01-28T15:10:16;2.10;99.90
5457;DHT22;2751;49.802;9.944;2023-01-28T15:12:48;2.20;99.90
5457;DHT22;2751;49.802;9.944;2023-01-28T15:15:22;2.10;99.90
5457;DHT22;2751;49.802;9.944;2023-01-28T15:17:50;2.00;99.90
5457;DHT22;2751;49.802;9.944;2023-01-28T15:20:21;2.00;99.90
5457;DHT22;2751;49.802;9.944;2023-01-28T15:22:49;2.10;99.90
5457;DHT22;2751;49.802;9.944;2023-01-28T15:25:18;2.10;99.90
5457;DHT22;2751;49.802;9.944;2023-01-28T15:27:46;2.10;99.90
5457;DHT22;2751;49.802;9.944;2023-01-28T15:30:20;2.10;99.90
5457;DHT22;2751;49.802;9.944;2023-01-28T15:32:56;2.10;99.90
5457;DHT22;2751;49.802;9.944;2023-01-28T15:35:25;2.10;99.90
5457;DHT22;2751;49.802;9.944;2023-01-28T15:37:52;2.00;99.90
5457;DHT22;2751;49.802;9.944;2023-01-28T15:40:20;2.10;99.90
5457;DHT22;2751;49.802;9.944;2023-01-28T15:42:49;2.10;99.90
5457;DHT22;2751;49.802;9.944;2023-01-28T15:45:17;2.00;99.90
5457;DHT22;2751;49.802;9.944;2023-01-28T15:47:45;2.00;99.90
5457;DHT22;2751;49.802;9.944;2023-01-28T15:50:17;2.00;99.90
5457;DHT22;2751;49.802;9.944;2023-01-28T15:52:46;2.00;99.90
5457;DHT22;2751;49.802;9.944;2023-01-28T15:55:35;2.00;99.90
5457;DHT22;2751;49.802;9.944;2023-01-28T15:58:16;1.90;99.90
5457;DHT22;2751;49.802;9.944;2023-01-28T16:00:43;1.90;99.90
5457;DHT22;2751;49.802;9.944;2023-01-28T16:03:18;1.90;99.90
5457;DHT22;2751;49.802;9.944;2023-01-28T16:05:55;1.90;99.90
5457;DHT22;2751;49.802;9.944;2023-01-28T16:08:27;1.90;99.90
5457;DHT22;2751;49.802;9.944;2023-01-28T16:10:55;1.80;99.90
5457;DHT22;2751;49.802;9.944;2023-01-28T16:13:24;1.80;99.90
5457;DHT22;2751;49.802;9.944;2023-01-28T16:15:53;1.80;99.90
5457;DHT22;2751;49.802;9.944;2023-01-28T16:18:28;1.80;99.90
5457;DHT22;2751;49.802;9.944;2023-01-28T16:20:55;2.10;99.90
5457;DHT22;2751;49.802;9.944;2023-01-28T16:23:25;1.80;99.90
5457;DHT22;2751;49.802;9.944;2023-01-28T16:25:59;1.80;99.90
5457;DHT22;2751;49.802;9.944;2023-01-28T16:28:27;1.80;99.90
5457;DHT22;2751;49.802;9.944;2023-01-28T16:30:55;1.80;99.90
5457;DHT22;2751;49.802;9.944;2023-01-28T16:33:22;1.80;99.90
5457;DHT22;2751;49.802;9.944;2023-01-28T16:35:50;1.80;99.90
5457;DHT22;2751;49.802;9.944;2023-01-28T16:38:17;1.80;99.90
5457;DHT22;2751;49.802;9.944;2023-01-28T16:40:46;1.70;99.90
5457;DHT22;2751;49.802;9.944;2023-01-28T16:43:14;1.70;99.90
5457;DHT22;2751;49.802;9.944;2023-01-28T16:45:42;1.70;99.90
5457;DHT22;2751;49.802;9.944;2023-01-28T16:48:08;1.80;99.90
5457;DHT22;2751;49.802;9.944;2023-01-28T16:50:38;1.60;99.90
5457;DHT22;2751;49.802;9.944;2023-01-28T16:53:16;1.70;99.90
5457;DHT22;2751;49.802;9.944;2023-01-28T16:55:45;1.70;99.90
5457;DHT22;2751;49.802;9.944;2023-01-28T16:58:15;1.70;99.90
5457;DHT22;2751;49.802;9.944;2023-01-28T17:00:43;1.90;99.90